createdAt,value
2022-08-21T00:00:07.927Z,1016.21
2022-08-21T00:05:07.829Z,1016.23
2022-08-21T00:10:08.600Z,1016.05
2022-08-21T00:15:08.576Z,1016.09
2022-08-21T00:20:08.322Z,1016.05
2022-08-21T00:25:08.031Z,1016.1
2022-08-21T00:30:07.775Z,1016.1
2022-08-21T00:35:08.522Z,1016.03
2022-08-21T00:40:08.286Z,1016.02
2022-08-21T00:45:08.073Z,1016.04
2022-08-21T00:50:07.825Z,1015.88
2022-08-21T00:55:07.722Z,1015.91
2022-08-21T01:00:08.321Z,1015.98
2022-08-21T01:05:08.012Z,1016.0
2022-08-21T01:10:07.723Z,1015.96
2022-08-21T01:15:08.423Z,1016.0
2022-08-21T01:20:09.537Z,1015.96
2022-08-21T01:25:08.224Z,1016.02
2022-08-21T01:30:07.897Z,1016.01
2022-08-21T01:35:08.603Z,1015.96
2022-08-21T01:40:08.532Z,1015.99
2022-08-21T01:45:08.254Z,1015.93
2022-08-21T01:50:07.980Z,1015.97
2022-08-21T01:55:07.688Z,1016.0
2022-08-21T02:00:08.395Z,1016.0
2022-08-21T02:05:08.107Z,1015.98
2022-08-21T02:10:07.829Z,1015.97
2022-08-21T02:15:08.581Z,1016.0
2022-08-21T02:20:08.307Z,1015.94
2022-08-21T02:25:08.014Z,1015.94
2022-08-21T02:30:07.709Z,1015.8
2022-08-21T02:35:08.385Z,1015.85
2022-08-21T02:40:08.111Z,1015.87
2022-08-21T02:45:07.810Z,1015.79
2022-08-21T02:50:08.537Z,1015.8
2022-08-21T02:55:08.232Z,1015.73
2022-08-21T03:00:08.027Z,1015.77
2022-08-21T03:05:07.731Z,1015.87
2022-08-21T03:10:08.400Z,1015.81
2022-08-21T03:15:08.109Z,1015.7
2022-08-21T03:20:07.807Z,1015.65
2022-08-21T03:25:08.548Z,1015.61
2022-08-21T03:30:08.122Z,1015.58
2022-08-21T03:35:07.811Z,1015.74
2022-08-21T03:40:08.620Z,1015.6
2022-08-21T03:45:08.362Z,1015.68
2022-08-21T03:50:08.072Z,1015.75
2022-08-21T03:55:07.818Z,1015.69
2022-08-21T04:00:08.530Z,1015.79
2022-08-21T04:05:02.484Z,1015.7
2022-08-21T04:10:02.348Z,1015.71
2022-08-21T04:15:02.292Z,1015.76
2022-08-21T04:20:02.290Z,1015.75
2022-08-21T04:25:02.113Z,1015.85
2022-08-21T04:30:01.891Z,1015.8
2022-08-21T04:35:02.713Z,1015.8
2022-08-21T04:40:02.608Z,1015.87
2022-08-21T04:45:02.500Z,1015.83
2022-08-21T04:50:02.474Z,1015.78
2022-08-21T04:55:02.242Z,1015.76
2022-08-21T05:00:02.074Z,1015.8
2022-08-21T05:05:01.850Z,1015.81
2022-08-21T05:10:02.681Z,1015.73
2022-08-21T05:15:02.526Z,1015.66
2022-08-21T05:20:02.273Z,1015.69
2022-08-21T05:25:02.141Z,1015.73
2022-08-21T05:30:02.014Z,1015.66
2022-08-21T05:35:01.861Z,1015.59
2022-08-21T05:40:05.137Z,1015.66
2022-08-21T05:45:01.934Z,1015.6
2022-08-21T05:50:02.724Z,1015.69
2022-08-21T05:55:02.676Z,1015.73
2022-08-21T06:00:02.658Z,1015.81
2022-08-21T06:05:02.861Z,1015.72
2022-08-21T06:10:02.807Z,1015.68
2022-08-21T06:15:02.741Z,1015.68
2022-08-21T06:20:02.739Z,1015.82
2022-08-21T06:25:02.738Z,1015.9
2022-08-21T06:30:02.829Z,1015.85
2022-08-21T06:35:02.839Z,1015.86
2022-08-21T06:40:02.877Z,1015.93
2022-08-21T06:45:01.846Z,1015.92
2022-08-21T06:50:02.686Z,1015.89
2022-08-21T06:55:02.609Z,1015.87
2022-08-21T07:00:02.552Z,1015.9
2022-08-21T07:05:11.793Z,1015.99
2022-08-21T07:10:02.159Z,1015.97
2022-08-21T07:15:02.110Z,1015.99
2022-08-21T07:20:01.917Z,1016.03
2022-08-21T07:25:02.779Z,1016.03
2022-08-21T07:30:02.540Z,1016.09
2022-08-21T07:35:02.426Z,1016.03
2022-08-21T07:40:02.341Z,1015.9
2022-08-21T07:45:02.232Z,1015.98
2022-08-21T07:50:01.990Z,1015.9
2022-08-21T07:55:06.081Z,1015.93
2022-08-21T08:00:02.513Z,1015.77
2022-08-21T08:05:02.340Z,1015.68
2022-08-21T08:10:02.214Z,1015.68
2022-08-21T08:15:02.168Z,1015.76
2022-08-21T08:20:02.046Z,1015.76
2022-08-21T08:25:04.268Z,1015.76
2022-08-21T08:30:02.295Z,1015.72
2022-08-21T08:35:02.133Z,1015.68
2022-08-21T08:40:02.153Z,1015.67
2022-08-21T08:45:02.623Z,1015.67
2022-08-21T08:50:02.548Z,1015.7
2022-08-21T08:55:02.534Z,1015.62
2022-08-21T09:00:02.698Z,1015.69
2022-08-21T09:05:02.674Z,1015.72
2022-08-21T09:10:02.825Z,1015.55
2022-08-21T09:15:01.942Z,1015.56
2022-08-21T09:20:11.944Z,1015.48
2022-08-21T09:25:02.959Z,1015.48
2022-08-21T09:30:01.742Z,1015.46
2022-08-21T09:35:02.679Z,1015.4
2022-08-21T09:40:02.577Z,1015.41
2022-08-21T09:45:02.421Z,1015.41
2022-08-21T09:50:02.190Z,1015.44
2022-08-21T09:55:12.115Z,1015.34
2022-08-21T10:00:02.656Z,1015.38
2022-08-21T10:05:02.420Z,1015.38
2022-08-21T10:10:02.262Z,1015.31
2022-08-21T10:15:05.281Z,1015.38
2022-08-21T10:20:12.445Z,1015.35
2022-08-21T10:25:02.288Z,1015.35
2022-08-21T10:30:02.191Z,1015.33
2022-08-21T10:35:02.049Z,1015.27
2022-08-21T10:40:01.835Z,1015.24
2022-08-21T10:45:02.778Z,1015.25
2022-08-21T10:50:02.599Z,1015.22
2022-08-21T10:55:02.382Z,1015.22
2022-08-21T11:00:01.865Z,1015.15
2022-08-21T11:05:02.749Z,1015.12
2022-08-21T11:10:02.665Z,1015.2
2022-08-21T11:15:02.059Z,1015.23
2022-08-21T11:20:01.907Z,1015.24
2022-08-21T11:25:02.856Z,1015.29
2022-08-21T11:30:03.078Z,1015.29
2022-08-21T11:35:02.059Z,1015.23
2022-08-21T11:40:02.116Z,1015.21
2022-08-21T11:45:02.157Z,1015.15
2022-08-21T11:50:02.170Z,1015.15
2022-08-21T11:55:02.115Z,1015.09
2022-08-21T12:00:02.017Z,1015.12
2022-08-21T12:05:08.385Z,1015.13
2022-08-21T12:10:01.778Z,1014.99
2022-08-21T12:15:12.616Z,1015.04
2022-08-21T12:20:02.404Z,1015.01
2022-08-21T12:25:02.222Z,1015.02
2022-08-21T12:30:02.040Z,1015.04
2022-08-21T12:35:01.966Z,1015.02
2022-08-21T12:40:01.945Z,1015.04
2022-08-21T12:45:01.877Z,1014.99
2022-08-21T12:50:02.729Z,1015.06
2022-08-21T12:55:02.634Z,1015.0
2022-08-21T13:00:02.501Z,1015.07
2022-08-21T13:05:02.367Z,1015.13
2022-08-21T13:10:02.187Z,1015.05
2022-08-21T13:15:02.242Z,1014.97
2022-08-21T13:20:08.156Z,1014.97
2022-08-21T13:25:02.365Z,1014.93
2022-08-21T13:30:02.144Z,1014.94
2022-08-21T13:35:02.024Z,1014.84
2022-08-21T13:40:02.045Z,1014.93
2022-08-21T13:45:02.053Z,1014.9
2022-08-21T13:50:01.928Z,1014.83
2022-08-21T13:55:01.852Z,1014.78
2022-08-21T14:00:02.740Z,1014.79
2022-08-21T14:05:02.820Z,1014.76
2022-08-21T14:10:02.992Z,1014.73
2022-08-21T14:15:02.021Z,1014.68
2022-08-21T14:20:01.945Z,1014.64
2022-08-21T14:25:02.979Z,1014.66
2022-08-21T14:30:02.238Z,1014.63
2022-08-21T14:35:02.528Z,1014.67
2022-08-21T14:40:02.681Z,1014.56
2022-08-21T14:45:02.653Z,1014.59
2022-08-21T14:50:02.647Z,1014.56
2022-08-21T14:55:02.483Z,1014.54
2022-08-21T15:00:02.430Z,1014.51
2022-08-21T15:05:02.295Z,1014.45
2022-08-21T15:10:02.147Z,1014.47
2022-08-21T15:15:01.953Z,1014.42
2022-08-21T15:20:01.749Z,1014.45
2022-08-21T15:25:02.626Z,1014.56
2022-08-21T15:30:02.444Z,1014.52
2022-08-21T15:35:02.250Z,1014.59
2022-08-21T15:40:02.214Z,1014.54
2022-08-21T15:45:02.141Z,1014.57
2022-08-21T15:50:02.029Z,1014.59
2022-08-21T15:55:01.866Z,1014.56
2022-08-21T16:00:02.653Z,1014.62
2022-08-21T16:05:02.611Z,1014.57
2022-08-21T16:10:02.410Z,1014.58
2022-08-21T16:15:02.153Z,1014.66
2022-08-21T16:20:02.024Z,1014.59
2022-08-21T16:25:01.783Z,1014.65
2022-08-21T16:30:01.934Z,1014.74
2022-08-21T16:35:02.662Z,1014.76
2022-08-21T16:40:02.426Z,1014.73
2022-08-21T16:45:02.343Z,1014.73
2022-08-21T16:50:02.312Z,1014.73
2022-08-21T16:55:02.383Z,1014.73
2022-08-21T17:00:02.352Z,1014.69
2022-08-21T17:05:02.290Z,1014.78
2022-08-21T17:10:02.355Z,1014.78
2022-08-21T17:15:02.914Z,1014.71
2022-08-21T17:20:02.864Z,1014.7
2022-08-21T17:25:02.895Z,1014.75
2022-08-21T17:30:02.967Z,1014.66
2022-08-21T17:35:01.794Z,1014.68
2022-08-21T17:40:02.814Z,1014.75
2022-08-21T17:45:01.799Z,1014.78
2022-08-21T17:50:03.043Z,1014.71
2022-08-21T17:55:02.000Z,1014.75
2022-08-21T18:00:01.962Z,1014.84
2022-08-21T18:05:04.410Z,1014.86
2022-08-21T18:10:02.298Z,1014.86
2022-08-21T18:15:02.150Z,1014.85
2022-08-21T18:20:02.039Z,1014.86
2022-08-21T18:25:01.847Z,1014.91
2022-08-21T18:30:02.924Z,1014.91
2022-08-21T18:35:02.839Z,1015.1
2022-08-21T18:40:02.784Z,1015.07
2022-08-21T18:45:02.714Z,1015.02
2022-08-21T18:50:02.538Z,1015.03
2022-08-21T18:55:06.238Z,1015.1
2022-08-21T19:00:02.037Z,1015.1
2022-08-21T19:05:02.065Z,1015.14
2022-08-21T19:10:27.859Z,1015.17
2022-08-21T19:15:01.785Z,1015.25
2022-08-21T19:20:02.783Z,1015.2
2022-08-21T19:25:02.752Z,1015.39
2022-08-21T19:30:02.554Z,1015.4
2022-08-21T19:35:02.564Z,1015.46
2022-08-21T19:40:02.455Z,1015.46
2022-08-21T19:45:02.327Z,1015.39
2022-08-21T19:50:03.232Z,1015.39
2022-08-21T19:55:02.305Z,1015.38
2022-08-21T20:00:02.248Z,1015.41
2022-08-21T20:05:02.354Z,1015.41
2022-08-21T20:10:02.307Z,1015.34
2022-08-21T20:15:02.267Z,1015.38
2022-08-21T20:20:02.111Z,1015.3
2022-08-21T20:25:02.245Z,1015.45
2022-08-21T20:30:02.100Z,1015.47
2022-08-21T20:35:02.033Z,1015.42
2022-08-21T20:40:02.225Z,1015.37
2022-08-21T20:45:02.730Z,1015.53
2022-08-21T20:50:02.075Z,1015.5
2022-08-21T20:55:02.567Z,1015.52
2022-08-21T21:00:08.075Z,1015.59
2022-08-21T21:05:02.140Z,1015.57
2022-08-21T21:10:02.168Z,1015.5
2022-08-21T21:15:02.511Z,1015.54
2022-08-21T21:20:02.516Z,1015.55
2022-08-21T21:25:02.289Z,1015.54
2022-08-21T21:30:02.327Z,1015.51
2022-08-21T21:35:32.703Z,1015.49
2022-08-21T21:40:08.201Z,1015.45
2022-08-21T21:45:07.939Z,1015.47
2022-08-21T21:50:08.664Z,1015.45
2022-08-21T21:55:08.537Z,1015.46
2022-08-21T22:00:08.298Z,1015.54
2022-08-21T22:05:08.035Z,1015.59
2022-08-21T22:15:07.729Z,1015.52
2022-08-21T22:20:18.404Z,1015.55
2022-08-21T22:25:08.077Z,1015.62
2022-08-21T22:30:07.966Z,1015.58
2022-08-21T22:40:07.905Z,1015.7
2022-08-21T22:45:12.252Z,1015.63
2022-08-21T22:50:08.228Z,1015.64
2022-08-21T22:55:07.657Z,1015.64
2022-08-21T23:01:00.872Z,1015.55
2022-08-21T23:10:08.001Z,1015.53
2022-08-21T23:15:08.028Z,1015.51
2022-08-21T23:20:07.744Z,1015.53
2022-08-21T23:25:08.470Z,1015.52
2022-08-21T23:30:08.585Z,1015.45
2022-08-21T23:35:08.290Z,1015.49
2022-08-21T23:40:08.554Z,1015.49
2022-08-21T23:45:17.999Z,1015.4
2022-08-21T23:50:14.142Z,1015.35
2022-08-21T23:55:08.335Z,1015.33
